Time,TemperatureF,DewpointF,PressureIn,WindDirection,WindDirectionDegrees,WindSpeedMPH,WindSpeedGustMPH,Humidity,HourlyPrecipIn,Conditions,Clouds,dailyrainin,SoftwareType,DateUTC
2013-10-11 00:00:00,51.3,50.8,30.07,SSW,202,0.0,1.0,98,0.00,,OVC055,0.00,VWS V14.01,2013-10-11 04:00:00,
2013-10-11 00:01:00,51.3,51.0,30.07,SSW,202,0.0,1.0,99,0.00,,OVC055,0.00,VWS V14.01,2013-10-11 04:01:00,
2013-10-11 00:06:00,51.3,51.0,30.07,SSW,202,0.0,1.0,99,0.00,,OVC055,0.00,VWS V14.01,2013-10-11 04:06:00,
2013-10-11 00:11:00,51.2,50.9,30.07,SSW,202,0.0,1.0,99,0.00,,OVC055,0.00,VWS V14.01,2013-10-11 04:11:00,
2013-10-11 00:16:00,51.0,50.7,30.07,SSW,202,0.0,1.0,99,0.00,,OVC055,0.00,VWS V14.01,2013-10-11 04:16:00,
2013-10-11 00:21:00,51.0,50.7,30.07,SSW,202,0.0,1.0,99,0.00,,OVC055,0.00,VWS V14.01,2013-10-11 04:21:00,
2013-10-11 00:26:00,51.0,50.7,30.07,SSW,202,0.0,1.0,99,0.00,,OVC055,0.00,VWS V14.01,2013-10-11 04:26:00,
2013-10-11 00:30:00,51.0,50.7,30.07,SSW,202,0.0,1.0,99,0.00,,OVC055,0.00,VWS V14.01,2013-10-11 04:30:00,
2013-10-11 00:31:00,50.9,50.6,30.06,SSW,202,0.0,0.0,99,0.00,,OVC055,0.00,VWS V14.01,2013-10-11 04:31:00,
2013-10-11 00:36:00,50.8,50.5,30.07,SSW,202,0.0,0.0,99,0.00,,OVC055,0.00,VWS V14.01,2013-10-11 04:36:00,
2013-10-11 00:41:00,50.5,50.0,30.07,SSW,202,0.0,0.0,98,0.00,,OVC055,0.00,VWS V14.01,2013-10-11 04:41:00,
2013-10-11 00:46:00,50.3,50.0,30.07,SSW,202,0.0,0.0,99,0.00,,OVC055,0.00,VWS V14.01,2013-10-11 04:46:00,
2013-10-11 00:51:00,50.2,49.9,30.07,SSW,202,0.0,0.0,99,0.00,,OVC055,0.00,VWS V14.01,2013-10-11 04:51:00,
2013-10-11 00:56:00,50.2,49.9,30.07,SSW,202,0.0,0.0,99,0.00,,OVC055,0.00,VWS V14.01,2013-10-11 04:56:00,
2013-10-11 01:00:00,50.1,49.8,30.07,SSW,202,0.0,0.0,99,0.00,,OVC055,0.00,VWS V14.01,2013-10-11 05:00:00,
2013-10-11 01:01:00,50.1,49.8,30.07,SSW,202,0.0,0.0,99,0.00,,OVC055,0.00,VWS V14.01,2013-10-11 05:01:00,
2013-10-11 01:06:00,50.0,49.7,30.07,SSW,202,0.0,0.0,99,0.00,,OVC055,0.00,VWS V14.01,2013-10-11 05:06:00,
2013-10-11 01:11:00,49.9,49.6,30.07,SSW,202,0.0,0.0,99,0.00,,OVC055,0.00,VWS V14.01,2013-10-11 05:11:00,
2013-10-11 01:16:00,49.9,49.6,30.07,SSW,202,0.0,0.0,99,0.00,,OVC055,0.00,VWS V14.01,2013-10-11 05:16:00,
2013-10-11 01:21:00,49.9,49.6,30.07,SSW,202,0.0,0.0,99,0.00,,OVC055,0.00,VWS V14.01,2013-10-11 05:21:00,
2013-10-11 01:26:00,49.8,49.5,30.07,SSW,202,0.0,0.0,99,0.00,,OVC055,0.00,VWS V14.01,2013-10-11 05:26:00,
2013-10-11 01:30:00,49.8,49.5,30.07,SSW,202,0.0,0.0,99,0.00,,OVC055,0.00,VWS V14.01,2013-10-11 05:30:00,
2013-10-11 01:31:00,49.7,49.4,30.07,SSW,202,0.0,0.0,99,0.00,,OVC055,0.00,VWS V14.01,2013-10-11 05:31:00,
2013-10-11 01:36:00,49.7,49.4,30.07,SSW,202,0.0,0.0,99,0.00,,OVC055,0.00,VWS V14.01,2013-10-11 05:36:00,
2013-10-11 01:41:00,49.4,49.1,30.07,SSW,202,0.0,0.0,99,0.00,,OVC055,0.00,VWS V14.01,2013-10-11 05:41:00,
2013-10-11 01:46:00,49.2,48.9,30.07,SSW,202,0.0,0.0,99,0.00,,OVC055,0.00,VWS V14.01,2013-10-11 05:46:00,
2013-10-11 01:51:00,49.1,48.8,30.07,SSW,202,0.0,0.0,99,0.00,,OVC055,0.00,VWS V14.01,2013-10-11 05:51:00,
2013-10-11 01:56:00,49.1,48.8,30.07,SSW,202,0.0,0.0,99,0.00,,OVC055,0.00,VWS V14.01,2013-10-11 05:56:00,
2013-10-11 02:00:00,49.1,48.8,30.07,SSW,202,0.0,0.0,99,0.00,,OVC055,0.00,VWS V14.01,2013-10-11 06:00:00,
2013-10-11 02:01:00,49.1,48.8,30.07,SSW,202,0.0,0.0,99,0.00,,OVC055,0.00,VWS V14.01,2013-10-11 06:01:00,
2013-10-11 02:06:00,49.0,48.7,30.07,SSW,202,0.0,0.0,99,0.00,,OVC055,0.00,VWS V14.01,2013-10-11 06:06:00,
2013-10-11 02:11:00,49.0,48.7,30.07,SSW,202,0.0,0.0,99,0.00,,OVC055,0.00,VWS V14.01,2013-10-11 06:11:00,
2013-10-11 02:16:00,48.8,48.5,30.07,SSW,202,0.0,0.0,99,0.00,,OVC055,0.00,VWS V14.01,2013-10-11 06:16:00,
2013-10-11 02:21:00,48.7,48.4,30.07,SSW,202,0.0,0.0,99,0.00,,OVC055,0.00,VWS V14.01,2013-10-11 06:21:00,
2013-10-11 02:26:00,48.5,48.2,30.07,SSW,202,0.0,0.0,99,0.00,,OVC055,0.00,VWS V14.01,2013-10-11 06:26:00,
2013-10-11 02:30:00,48.5,48.2,30.07,SSW,202,0.0,0.0,99,0.00,,OVC055,0.00,VWS V14.01,2013-10-11 06:30:00,
2013-10-11 02:31:00,48.5,48.2,30.07,SSW,202,0.0,0.0,99,0.00,,OVC055,0.00,VWS V14.01,2013-10-11 06:31:00,
2013-10-11 02:36:00,48.5,48.2,30.07,SSW,202,0.0,0.0,99,0.00,,OVC055,0.00,VWS V14.01,2013-10-11 06:36:00,
2013-10-11 02:41:00,48.5,48.5,30.07,SSW,202,0.0,0.0,100,0.00,,OVC055,0.00,VWS V14.01,2013-10-11 06:41:00,
2013-10-11 02:46:00,48.6,48.6,30.07,SSW,202,0.0,0.0,100,0.00,,OVC055,0.00,VWS V14.01,2013-10-11 06:46:00,
2013-10-11 02:51:00,48.5,48.5,30.07,SSW,202,0.0,0.0,100,0.00,,OVC055,0.00,VWS V14.01,2013-10-11 06:51:00,
2013-10-11 02:56:00,48.5,48.5,30.07,SSW,202,0.0,0.0,100,0.00,,OVC055,0.00,VWS V14.01,2013-10-11 06:56:00,
2013-10-11 03:00:00,48.5,48.5,30.07,SSW,202,0.0,0.0,100,0.00,,OVC055,0.00,VWS V14.01,2013-10-11 07:00:00,
2013-10-11 03:01:00,48.5,48.5,30.06,SSW,202,0.0,0.0,100,0.00,,OVC055,0.00,VWS V14.01,2013-10-11 07:01:00,
2013-10-11 03:06:00,48.4,48.4,30.06,SSW,202,0.0,0.0,100,0.00,,OVC055,0.00,VWS V14.01,2013-10-11 07:06:00,
2013-10-11 03:11:00,48.3,48.3,30.06,SSW,202,0.0,0.0,100,0.00,,OVC055,0.00,VWS V14.01,2013-10-11 07:11:00,
2013-10-11 03:16:00,48.1,48.1,30.06,SSW,202,0.0,0.0,100,0.00,,OVC055,0.00,VWS V14.01,2013-10-11 07:16:00,
2013-10-11 03:21:00,48.0,47.7,30.06,SSW,202,0.0,0.0,99,0.00,,OVC055,0.00,VWS V14.01,2013-10-11 07:21:00,
2013-10-11 03:26:00,47.8,47.5,30.06,SSW,202,0.0,0.0,99,0.00,,OVC055,0.00,VWS V14.01,2013-10-11 07:26:00,
2013-10-11 03:30:00,47.7,47.4,30.06,SSW,202,0.0,0.0,99,0.00,,OVC055,0.00,VWS V14.01,2013-10-11 07:30:00,
2013-10-11 03:31:00,47.6,47.3,30.06,SSW,202,0.0,0.0,99,0.00,,OVC055,0.00,VWS V14.01,2013-10-11 07:31:00,
2013-10-11 03:35:00,47.5,47.5,30.06,SSW,202,0.0,0.0,100,0.00,,OVC055,0.00,VWS V14.01,2013-10-11 07:35:00,
2013-10-11 03:40:00,47.4,47.1,30.06,SSW,202,0.0,0.0,99,0.00,,OVC055,0.00,VWS V14.01,2013-10-11 07:40:00,
2013-10-11 03:45:00,47.4,47.4,30.06,SSW,202,0.0,0.0,100,0.00,,OVC055,0.00,VWS V14.01,2013-10-11 07:45:00,
2013-10-11 03:50:00,47.3,47.3,30.06,SSW,202,0.0,0.0,100,0.00,,OVC055,0.00,VWS V14.01,2013-10-11 07:50:00,
2013-10-11 03:55:00,47.2,47.2,30.06,SSW,202,0.0,0.0,100,0.00,,OVC055,0.00,VWS V14.01,2013-10-11 07:55:00,
2013-10-11 04:00:00,47.1,47.1,30.06,SSW,202,0.0,0.0,100,0.00,,OVC055,0.00,VWS V14.01,2013-10-11 08:00:00,
2013-10-11 04:05:00,47.0,47.0,30.06,SSW,202,0.0,0.0,100,0.00,,OVC055,0.00,VWS V14.01,2013-10-11 08:05:00,
2013-10-11 04:10:00,47.0,47.0,30.06,SSW,202,0.0,0.0,100,0.00,,OVC055,0.00,VWS V14.01,2013-10-11 08:10:00,
2013-10-11 04:15:00,47.0,47.0,30.06,SSW,202,0.0,0.0,100,0.00,,OVC055,0.00,VWS V14.01,2013-10-11 08:15:00,
2013-10-11 04:20:00,46.9,46.9,30.06,SSW,202,0.0,0.0,100,0.00,,OVC055,0.00,VWS V14.01,2013-10-11 08:20:00,
2013-10-11 04:25:00,46.9,46.9,30.06,SSW,202,0.0,0.0,100,0.00,,OVC055,0.00,VWS V14.01,2013-10-11 08:25:00,
2013-10-11 04:30:00,46.9,46.9,30.06,SSW,202,0.0,0.0,100,0.00,,OVC055,0.00,VWS V14.01,2013-10-11 08:30:00,
2013-10-11 04:35:00,46.8,46.8,30.06,SSW,202,0.0,0.0,100,0.00,,OVC055,0.00,VWS V14.01,2013-10-11 08:35:00,
2013-10-11 04:40:00,46.7,46.7,30.06,SSW,202,0.0,0.0,100,0.00,,OVC055,0.00,VWS V14.01,2013-10-11 08:40:00,
2013-10-11 04:45:00,46.7,46.7,30.06,SSW,202,0.0,0.0,100,0.00,,OVC055,0.00,VWS V14.01,2013-10-11 08:45:00,
2013-10-11 04:50:00,46.6,46.6,30.06,SSW,202,0.0,0.0,100,0.00,,OVC055,0.00,VWS V14.01,2013-10-11 08:50:00,
2013-10-11 04:55:00,46.5,46.5,30.07,SSW,202,0.0,0.0,100,0.00,,OVC055,0.00,VWS V14.01,2013-10-11 08:55:00,
2013-10-11 05:00:00,46.5,46.5,30.07,SSW,202,0.0,0.0,100,0.00,,OVC055,0.00,VWS V14.01,2013-10-11 09:00:00,
2013-10-11 05:05:00,46.4,46.4,30.07,SSW,202,0.0,0.0,100,0.00,,OVC055,0.00,VWS V14.01,2013-10-11 09:05:00,
2013-10-11 05:10:00,46.4,46.4,30.07,SSW,202,0.0,0.0,100,0.00,,OVC055,0.00,VWS V14.01,2013-10-11 09:10:00,
2013-10-11 05:15:00,46.4,46.4,30.07,SSW,202,0.0,0.0,100,0.00,,OVC055,0.00,VWS V14.01,2013-10-11 09:15:00,
2013-10-11 05:20:00,46.4,46.4,30.07,SSW,202,0.0,0.0,100,0.00,,OVC055,0.00,VWS V14.01,2013-10-11 09:20:00,
2013-10-11 05:25:00,46.3,46.3,30.06,SSW,202,0.0,0.0,100,0.00,,OVC055,0.00,VWS V14.01,2013-10-11 09:25:00,
2013-10-11 05:30:00,46.3,46.3,30.06,SSW,202,0.0,0.0,100,0.00,,OVC055,0.00,VWS V14.01,2013-10-11 09:30:00,
2013-10-11 05:35:00,46.1,46.1,30.06,SSW,202,0.0,0.0,100,0.00,,OVC055,0.00,VWS V14.01,2013-10-11 09:35:00,
2013-10-11 05:40:00,46.1,46.1,30.06,SSW,202,0.0,0.0,100,0.00,,OVC055,0.00,VWS V14.01,2013-10-11 09:40:00,
2013-10-11 05:45:00,46.1,46.1,30.06,SSW,202,0.0,0.0,100,0.00,,OVC055,0.00,VWS V14.01,2013-10-11 09:45:00,
2013-10-11 05:50:00,46.1,46.1,30.06,SSW,202,0.0,0.0,100,0.00,,OVC055,0.00,VWS V14.01,2013-10-11 09:50:00,
2013-10-11 05:55:00,46.1,46.1,30.06,SSW,202,0.0,1.0,100,0.00,,OVC055,0.00,VWS V14.01,2013-10-11 09:55:00,
2013-10-11 06:00:00,46.0,46.0,30.06,SSW,202,0.0,0.0,100,0.00,,OVC055,0.00,VWS V14.01,2013-10-11 10:00:00,
2013-10-11 06:05:00,46.0,46.0,30.06,SSW,202,0.0,0.0,100,0.00,,OVC055,0.00,VWS V14.01,2013-10-11 10:05:00,
2013-10-11 06:10:00,45.9,45.9,30.06,SSW,202,0.0,0.0,100,0.00,,OVC055,0.00,VWS V14.01,2013-10-11 10:10:00,
2013-10-11 06:15:00,45.8,45.8,30.07,SSW,202,0.0,0.0,100,0.00,,OVC055,0.00,VWS V14.01,2013-10-11 10:15:00,
2013-10-11 06:20:00,45.8,45.8,30.07,SSW,202,0.0,0.0,100,0.00,,OVC055,0.00,VWS V14.01,2013-10-11 10:20:00,
2013-10-11 06:25:00,45.7,45.7,30.07,SSW,202,0.0,0.0,100,0.00,,OVC055,0.00,VWS V14.01,2013-10-11 10:25:00,
2013-10-11 06:30:00,45.6,45.6,30.07,SSW,202,0.0,0.0,100,0.00,,OVC055,0.00,VWS V14.01,2013-10-11 10:30:00,
2013-10-11 06:35:00,45.6,45.6,30.07,SSW,202,0.0,0.0,100,0.00,,OVC055,0.00,VWS V14.01,2013-10-11 10:35:00,
2013-10-11 06:40:00,45.6,45.6,30.07,SSW,202,0.0,0.0,100,0.00,,OVC055,0.00,VWS V14.01,2013-10-11 10:40:00,
2013-10-11 06:45:00,45.6,45.6,30.07,SSW,202,0.0,1.0,100,0.00,,OVC055,0.00,VWS V14.01,2013-10-11 10:45:00,
2013-10-11 06:50:00,45.6,45.6,30.07,SSW,202,0.0,1.0,100,0.00,,OVC055,0.00,VWS V14.01,2013-10-11 10:50:00,
2013-10-11 06:55:00,45.6,45.6,30.07,SSW,202,0.0,1.0,100,0.00,,OVC055,0.00,VWS V14.01,2013-10-11 10:55:00,
2013-10-11 07:00:00,45.6,45.6,30.07,SSW,202,0.0,0.0,100,0.00,,OVC055,0.00,VWS V14.01,2013-10-11 11:00:00,
2013-10-11 07:05:00,45.6,45.6,30.07,SSW,202,0.0,0.0,100,0.00,,OVC055,0.00,VWS V14.01,2013-10-11 11:05:00,
2013-10-11 07:10:00,45.6,45.6,30.07,SSW,202,0.0,1.0,100,0.00,,OVC055,0.00,VWS V14.01,2013-10-11 11:10:00,
2013-10-11 07:15:00,45.6,45.6,30.07,SSW,202,0.0,1.0,100,0.00,,OVC055,0.00,VWS V14.01,2013-10-11 11:15:00,
2013-10-11 07:20:00,45.5,45.5,30.07,SSW,202,0.0,1.0,100,0.00,,OVC055,0.00,VWS V14.01,2013-10-11 11:20:00,
2013-10-11 07:25:00,45.5,45.5,30.07,SSW,202,0.0,1.0,100,0.00,,OVC055,0.00,VWS V14.01,2013-10-11 11:25:00,
2013-10-11 07:30:00,45.4,45.4,30.07,SSW,202,0.0,0.0,100,0.00,,OVC055,0.00,VWS V14.01,2013-10-11 11:30:00,
2013-10-11 07:35:00,45.2,45.2,30.08,SSW,202,0.0,0.0,100,0.00,,OVC055,0.00,VWS V14.01,2013-10-11 11:35:00,
2013-10-11 07:40:00,45.1,45.1,30.08,SSW,202,0.0,0.0,100,0.00,,OVC055,0.00,VWS V14.01,2013-10-11 11:40:00,
2013-10-11 07:45:00,45.1,45.1,30.08,SSW,202,0.0,0.0,100,0.00,,OVC055,0.00,VWS V14.01,2013-10-11 11:45:00,
2013-10-11 07:50:00,45.2,45.2,30.08,SSW,202,0.0,2.0,100,0.00,,OVC055,0.00,VWS V14.01,2013-10-11 11:50:00,
2013-10-11 07:55:00,45.3,45.3,30.08,SSW,202,0.0,2.0,100,0.00,,OVC055,0.00,VWS V14.01,2013-10-11 11:55:00,
2013-10-11 08:00:00,45.4,45.4,30.08,SSW,202,0.0,0.0,100,0.00,,OVC055,0.00,VWS V14.01,2013-10-11 12:00:00,
2013-10-11 08:05:00,45.4,45.4,30.08,SSW,202,0.0,0.0,100,0.00,,OVC055,0.00,VWS V14.01,2013-10-11 12:05:00,
2013-10-11 08:10:00,45.5,45.5,30.08,SSW,202,0.0,0.0,100,0.00,,OVC055,0.00,VWS V14.01,2013-10-11 12:10:00,
2013-10-11 08:15:00,45.7,45.7,30.07,SSW,202,0.0,1.0,100,0.00,,OVC055,0.00,VWS V14.01,2013-10-11 12:15:00,
2013-10-11 08:20:00,45.7,45.7,30.07,SSW,202,0.0,2.0,100,0.00,,OVC055,0.00,VWS V14.01,2013-10-11 12:20:00,
2013-10-11 08:25:00,45.7,45.7,30.07,SSW,202,0.0,2.0,100,0.00,,OVC055,0.00,VWS V14.01,2013-10-11 12:25:00,
2013-10-11 08:30:00,45.7,45.7,30.08,SSW,202,0.0,0.0,100,0.00,,OVC055,0.00,VWS V14.01,2013-10-11 12:30:00,
2013-10-11 08:35:00,45.9,45.9,30.08,SSW,202,0.0,1.0,100,0.00,,OVC055,0.00,VWS V14.01,2013-10-11 12:35:00,
2013-10-11 08:40:00,46.1,46.1,30.08,SSW,202,1.0,1.0,100,0.00,,OVC055,0.00,VWS V14.01,2013-10-11 12:40:00,
2013-10-11 08:45:00,46.3,46.3,30.08,SSW,202,0.0,1.0,100,0.00,,OVC055,0.00,VWS V14.01,2013-10-11 12:45:00,
2013-10-11 08:50:00,46.3,46.3,30.08,SSW,202,0.0,1.0,100,0.00,,OVC055,0.00,VWS V14.01,2013-10-11 12:50:00,
2013-10-11 08:55:00,46.5,46.5,30.09,SSW,202,0.0,1.0,100,0.00,,OVC055,0.00,VWS V14.01,2013-10-11 12:55:00,
2013-10-11 09:00:00,46.6,46.6,30.09,SSW,202,0.0,1.0,100,0.00,,OVC055,0.00,VWS V14.01,2013-10-11 13:00:00,
2013-10-11 09:05:00,46.7,46.7,30.09,SSW,202,0.0,1.0,100,0.00,,OVC055,0.00,VWS V14.01,2013-10-11 13:05:00,
2013-10-11 09:10:00,47.0,47.0,30.09,SSW,202,0.0,1.0,100,0.00,,OVC055,0.00,VWS V14.01,2013-10-11 13:10:00,
2013-10-11 09:15:00,47.3,47.3,30.09,SSW,202,1.0,1.0,100,0.00,,OVC055,0.00,VWS V14.01,2013-10-11 13:15:00,
2013-10-11 09:20:00,47.4,47.4,30.09,SSW,202,0.0,1.0,100,0.00,,OVC055,0.00,VWS V14.01,2013-10-11 13:20:00,
2013-10-11 09:25:00,47.6,47.6,30.09,SSW,202,0.0,1.0,100,0.00,,OVC055,0.00,VWS V14.01,2013-10-11 13:25:00,
2013-10-11 09:30:00,47.8,47.8,30.09,SSW,202,0.0,1.0,100,0.00,,OVC055,0.00,VWS V14.01,2013-10-11 13:30:00,
2013-10-11 09:35:00,48.2,48.2,30.09,SSW,202,0.0,1.0,100,0.00,,OVC055,0.00,VWS V14.01,2013-10-11 13:35:00,
2013-10-11 09:40:00,48.6,48.6,30.09,SSW,202,0.0,1.0,100,0.00,,OVC055,0.00,VWS V14.01,2013-10-11 13:40:00,
2013-10-11 09:45:00,49.1,49.1,30.09,SSW,202,0.0,1.0,100,0.00,,OVC055,0.00,VWS V14.01,2013-10-11 13:45:00,
2013-10-11 09:50:00,49.5,49.5,30.09,SSW,202,1.0,1.0,100,0.00,,OVC055,0.00,VWS V14.01,2013-10-11 13:50:00,
2013-10-11 09:55:00,49.7,49.7,30.09,SSW,202,0.0,2.0,100,0.00,,OVC055,0.00,VWS V14.01,2013-10-11 13:55:00,
2013-10-11 09:59:00,49.9,49.9,30.09,SSW,202,0.0,2.0,100,0.00,,OVC055,0.00,VWS V14.01,2013-10-11 13:59:00,
2013-10-11 10:00:00,49.8,49.8,30.09,SSW,202,0.0,2.0,100,0.00,,OVC055,0.00,VWS V14.01,2013-10-11 14:00:00,
2013-10-11 10:04:00,50.2,50.2,30.09,SSW,202,0.0,2.0,100,0.00,,OVC055,0.00,VWS V14.01,2013-10-11 14:04:00,
2013-10-11 10:09:00,50.6,50.6,30.09,SSW,202,1.0,2.0,100,0.00,,OVC055,0.00,VWS V14.01,2013-10-11 14:09:00,
2013-10-11 10:14:00,51.0,51.0,30.09,SSW,202,0.0,2.0,100,0.00,,OVC055,0.00,VWS V14.01,2013-10-11 14:14:00,
2013-10-11 10:19:00,51.2,51.2,30.08,SSW,202,0.0,2.0,100,0.00,,OVC055,0.00,VWS V14.01,2013-10-11 14:19:00,
2013-10-11 10:24:00,51.9,51.9,30.08,SSW,202,0.0,2.0,100,0.00,,OVC055,0.00,VWS V14.01,2013-10-11 14:24:00,
2013-10-11 10:29:00,52.7,52.7,30.08,North,9,1.0,1.0,100,0.00,,OVC055,0.00,VWS V14.01,2013-10-11 14:29:00,
2013-10-11 10:30:00,52.5,52.5,30.08,North,9,0.0,3.0,100,0.00,,OVC055,0.00,VWS V14.01,2013-10-11 14:30:00,
2013-10-11 10:34:00,53.7,53.7,30.08,North,9,0.0,2.0,100,0.00,,OVC055,0.00,VWS V14.01,2013-10-11 14:34:00,
2013-10-11 10:39:00,54.4,54.4,30.08,North,9,1.0,2.0,100,0.00,,OVC055,0.00,VWS V14.01,2013-10-11 14:39:00,
2013-10-11 10:44:00,55.3,55.3,30.08,North,9,0.0,2.0,100,0.00,,OVC055,0.00,VWS V14.01,2013-10-11 14:44:00,
2013-10-11 10:49:00,56.0,56.0,30.07,North,9,0.0,2.0,100,0.00,,OVC055,0.00,VWS V14.01,2013-10-11 14:49:00,
2013-10-11 10:54:00,57.0,56.7,30.07,North,9,0.0,2.0,99,0.00,,OVC055,0.00,VWS V14.01,2013-10-11 14:54:00,
2013-10-11 10:59:00,58.0,56.6,30.07,NNE,14,0.0,0.0,95,0.00,,OVC055,0.00,VWS V14.01,2013-10-11 14:59:00,
2013-10-11 11:00:00,57.7,56.6,30.07,NNE,14,0.0,2.0,96,0.00,,OVC055,0.00,VWS V14.01,2013-10-11 15:00:00,
2013-10-11 11:04:00,59.0,57.0,30.07,NW,307,0.0,2.0,93,0.00,,OVC055,0.00,VWS V14.01,2013-10-11 15:04:00,
2013-10-11 11:09:00,60.4,57.8,30.07,NW,307,0.0,2.0,91,0.00,,OVC055,0.00,VWS V14.01,2013-10-11 15:09:00,
2013-10-11 11:14:00,61.6,58.3,30.07,NW,306,0.0,2.0,89,0.00,,OVC055,0.00,VWS V14.01,2013-10-11 15:14:00,
2013-10-11 11:19:00,62.3,58.4,30.07,NW,306,0.0,2.0,87,0.00,,OVC055,0.00,VWS V14.01,2013-10-11 15:19:00,
2013-10-11 11:24:00,63.3,57.7,30.07,NW,313,0.0,3.0,82,0.00,,OVC055,0.00,VWS V14.01,2013-10-11 15:24:00,
2013-10-11 11:29:00,64.1,58.5,30.06,NW,313,0.0,0.0,82,0.00,,OVC055,0.00,VWS V14.01,2013-10-11 15:29:00,
2013-10-11 11:30:00,63.9,58.3,30.06,NW,313,0.0,3.0,82,0.00,,OVC055,0.00,VWS V14.01,2013-10-11 15:30:00,
2013-10-11 11:34:00,64.7,59.1,30.06,NW,313,0.0,2.0,82,0.00,,OVC055,0.00,VWS V14.01,2013-10-11 15:34:00,
2013-10-11 11:39:00,65.1,59.8,30.06,NW,313,0.0,2.0,83,0.00,,OVC055,0.00,VWS V14.01,2013-10-11 15:39:00,
2013-10-11 11:44:00,65.7,60.4,30.06,NW,313,0.0,2.0,83,0.00,,OVC055,0.00,VWS V14.01,2013-10-11 15:44:00,
2013-10-11 11:49:00,66.4,60.4,30.05,SSW,201,0.0,2.0,81,0.00,,OVC055,0.00,VWS V14.01,2013-10-11 15:49:00,
2013-10-11 11:54:00,66.7,59.6,30.05,SSW,201,0.0,2.0,78,0.00,,OVC055,0.00,VWS V14.01,2013-10-11 15:54:00,
2013-10-11 11:59:00,67.0,59.2,30.05,SSW,201,0.0,1.0,76,0.00,,OVC055,0.00,VWS V14.01,2013-10-11 15:59:00,
2013-10-11 12:00:00,66.9,60.2,30.05,SSW,201,0.0,2.0,79,0.00,,OVC055,0.00,VWS V14.01,2013-10-11 16:00:00,
2013-10-11 12:04:00,67.9,58.9,30.05,NE,42,0.0,2.0,73,0.00,,OVC055,0.00,VWS V14.01,2013-10-11 16:04:00,
2013-10-11 12:09:00,68.6,59.2,30.05,East,90,1.0,4.0,72,0.00,,OVC055,0.00,VWS V14.01,2013-10-11 16:09:00,
2013-10-11 12:14:00,69.0,58.0,30.05,NNE,28,1.0,5.0,68,0.00,,OVC055,0.00,VWS V14.01,2013-10-11 16:14:00,
2013-10-11 12:19:00,69.2,59.0,30.05,NNE,27,0.0,5.0,70,0.00,,OVC055,0.00,VWS V14.01,2013-10-11 16:19:00,
2013-10-11 12:24:00,69.8,57.5,30.05,NNW,348,3.0,5.0,65,0.00,,OVC055,0.00,VWS V14.01,2013-10-11 16:24:00,
2013-10-11 12:29:00,70.5,56.9,30.05,East,88,2.0,2.0,62,0.00,,OVC055,0.00,VWS V14.01,2013-10-11 16:29:00,
2013-10-11 12:30:00,70.4,58.9,30.05,NE,34,0.0,5.0,67,0.00,,OVC055,0.00,VWS V14.01,2013-10-11 16:30:00,
2013-10-11 12:34:00,70.8,58.9,30.05,SE,127,0.0,2.0,66,0.00,,OVC055,0.00,VWS V14.01,2013-10-11 16:34:00,
2013-10-11 12:39:00,71.1,57.9,30.05,NNE,27,4.0,5.0,63,0.00,,OVC055,0.00,VWS V14.01,2013-10-11 16:39:00,
2013-10-11 12:44:00,71.2,57.5,30.04,North,355,1.0,5.0,62,0.00,,OVC055,0.00,VWS V14.01,2013-10-11 16:44:00,
2013-10-11 12:49:00,71.5,59.6,30.04,North,11,1.0,5.0,66,0.00,,OVC055,0.00,VWS V14.01,2013-10-11 16:49:00,
2013-10-11 12:54:00,71.7,58.9,30.03,SE,126,0.0,5.0,64,0.00,,OVC055,0.00,VWS V14.01,2013-10-11 16:54:00,
2013-10-11 12:59:00,72.1,59.7,30.03,North,351,0.0,2.0,65,0.00,,OVC055,0.00,VWS V14.01,2013-10-11 16:59:00,
2013-10-11 13:00:00,71.9,58.2,30.03,WNW,300,0.0,5.0,62,0.00,,OVC055,0.00,VWS V14.01,2013-10-11 17:00:00,
2013-10-11 13:04:00,72.3,58.1,30.03,NNE,30,2.0,5.0,61,0.00,,OVC055,0.00,VWS V14.01,2013-10-11 17:04:00,
2013-10-11 13:09:00,72.4,57.3,30.03,West,259,1.0,5.0,59,0.00,,OVC055,0.00,VWS V14.01,2013-10-11 17:09:00,
2013-10-11 13:14:00,72.5,57.8,30.03,NE,38,5.0,6.0,60,0.00,,OVC055,0.00,VWS V14.01,2013-10-11 17:14:00,
2013-10-11 13:19:00,72.5,55.4,30.03,NE,36,7.0,8.0,55,0.00,,OVC055,0.00,VWS V14.01,2013-10-11 17:19:00,
2013-10-11 13:24:00,72.6,54.5,30.02,NNE,20,3.0,9.0,53,0.00,,OVC055,0.00,VWS V14.01,2013-10-11 17:24:00,
2013-10-11 13:29:00,72.8,55.7,30.02,NNE,30,6.0,6.0,55,0.00,,OVC055,0.00,VWS V14.01,2013-10-11 17:29:00,
2013-10-11 13:30:00,72.8,55.2,30.02,NNE,33,1.0,10.0,54,0.00,,OVC055,0.00,VWS V14.01,2013-10-11 17:30:00,
2013-10-11 13:34:00,73.0,52.2,30.02,NE,46,6.0,7.0,48,0.00,,OVC055,0.00,VWS V14.01,2013-10-11 17:34:00,
2013-10-11 13:39:00,73.2,50.0,30.02,North,9,3.0,8.0,44,0.00,,OVC055,0.00,VWS V14.01,2013-10-11 17:39:00,
2013-10-11 13:44:00,73.3,53.6,30.01,NNE,17,6.0,11.0,50,0.00,,OVC055,0.00,VWS V14.01,2013-10-11 17:44:00,
2013-10-11 13:49:00,73.3,50.7,30.01,NNE,15,4.0,11.0,45,0.00,,OVC055,0.00,VWS V14.01,2013-10-11 17:49:00,
2013-10-11 13:54:00,73.5,52.6,30.01,NNE,28,7.0,12.0,48,0.00,,OVC055,0.00,VWS V14.01,2013-10-11 17:54:00,
2013-10-11 13:59:00,73.5,53.7,30.01,NNE,14,6.0,7.0,50,0.00,,OVC055,0.00,VWS V14.01,2013-10-11 17:59:00,
2013-10-11 14:00:00,73.6,53.3,30.01,NE,40,5.0,12.0,49,0.00,,OVC055,0.00,VWS V14.01,2013-10-11 18:00:00,
2013-10-11 14:04:00,73.3,53.0,30.01,NNE,15,6.0,12.0,49,0.00,,OVC055,0.00,VWS V14.01,2013-10-11 18:04:00,
2013-10-11 14:09:00,73.3,53.6,30.01,NNE,26,7.0,12.0,50,0.00,,OVC055,0.00,VWS V14.01,2013-10-11 18:09:00,
2013-10-11 14:14:00,73.4,54.2,30.00,North,9,6.0,12.0,51,0.00,,OVC055,0.00,VWS V14.01,2013-10-11 18:14:00,
2013-10-11 14:19:00,73.5,54.8,30.00,NNE,32,3.0,12.0,52,0.00,,OVC055,0.00,VWS V14.01,2013-10-11 18:19:00,
2013-10-11 14:24:00,73.6,54.4,30.00,NE,40,4.0,12.0,51,0.00,,OVC055,0.00,VWS V14.01,2013-10-11 18:24:00,
2013-10-11 14:29:00,73.6,54.9,29.99,NE,46,4.0,5.0,52,0.00,,OVC055,0.00,VWS V14.01,2013-10-11 18:29:00,
2013-10-11 14:30:00,73.6,55.4,30.00,ENE,61,4.0,12.0,53,0.00,,OVC055,0.00,VWS V14.01,2013-10-11 18:30:00,
2013-10-11 14:34:00,73.9,55.2,29.99,NNW,342,8.0,8.0,52,0.00,,OVC055,0.00,VWS V14.01,2013-10-11 18:34:00,
2013-10-11 14:39:00,74.1,55.4,29.99,NE,38,1.0,10.0,52,0.00,,OVC055,0.00,VWS V14.01,2013-10-11 18:39:00,
2013-10-11 14:44:00,74.1,54.3,29.99,NE,42,2.0,10.0,50,0.00,,OVC055,0.00,VWS V14.01,2013-10-11 18:44:00,
2013-10-11 14:49:00,74.2,54.9,29.99,NNE,32,0.0,10.0,51,0.00,,OVC055,0.00,VWS V14.01,2013-10-11 18:49:00,
2013-10-11 14:54:00,74.3,53.4,29.99,NNE,20,6.0,12.0,48,0.00,,OVC055,0.00,VWS V14.01,2013-10-11 18:54:00,
2013-10-11 14:59:00,74.3,55.6,29.99,North,5,6.0,6.0,52,0.00,,OVC055,0.00,VWS V14.01,2013-10-11 18:59:00,
2013-10-11 15:00:00,74.3,54.5,29.99,NNE,28,3.0,12.0,50,0.00,,OVC055,0.00,VWS V14.01,2013-10-11 19:00:00,
2013-10-11 15:04:00,74.3,53.4,29.99,NE,36,5.0,11.0,48,0.00,,OVC055,0.00,VWS V14.01,2013-10-11 19:04:00,
2013-10-11 15:09:00,74.3,53.9,29.98,NNE,26,6.0,11.0,49,0.00,,OVC055,0.00,VWS V14.01,2013-10-11 19:09:00,
2013-10-11 15:14:00,74.5,54.7,29.98,NNE,19,2.0,11.0,50,0.00,,OVC055,0.00,VWS V14.01,2013-10-11 19:14:00,
2013-10-11 15:19:00,74.7,53.2,29.98,NNE,15,6.0,12.0,47,0.00,,OVC055,0.00,VWS V14.01,2013-10-11 19:19:00,
2013-10-11 15:24:00,75.0,55.7,29.98,ENE,67,4.0,12.0,51,0.00,,OVC055,0.00,VWS V14.01,2013-10-11 19:24:00,
2013-10-11 15:29:00,74.9,55.6,29.98,NNE,12,4.0,5.0,51,0.00,,OVC055,0.00,VWS V14.01,2013-10-11 19:29:00,
2013-10-11 15:30:00,74.9,53.9,29.98,NNE,24,5.0,12.0,48,0.00,,OVC055,0.00,VWS V14.01,2013-10-11 19:30:00,
2013-10-11 15:34:00,75.1,55.2,29.98,North,360,9.0,10.0,50,0.00,,OVC055,0.00,VWS V14.01,2013-10-11 19:34:00,
2013-10-11 15:39:00,74.9,54.5,29.98,North,11,4.0,10.0,49,0.00,,OVC055,0.00,VWS V14.01,2013-10-11 19:39:00,
2013-10-11 15:44:00,74.9,56.1,29.98,NNW,344,7.0,10.0,52,0.00,,OVC055,0.00,VWS V14.01,2013-10-11 19:44:00,
2013-10-11 15:49:00,75.0,54.0,29.98,NNE,23,6.0,10.0,48,0.00,,OVC055,0.00,VWS V14.01,2013-10-11 19:49:00,
2013-10-11 15:54:00,75.0,55.7,29.98,North,9,6.0,11.0,51,0.00,,OVC055,0.00,VWS V14.01,2013-10-11 19:54:00,
2013-10-11 15:59:00,74.9,53.9,29.98,North,5,4.0,10.0,48,0.00,,OVC055,0.00,VWS V14.01,2013-10-11 19:59:00,
2013-10-11 16:00:00,74.9,54.5,29.98,NNE,15,8.0,11.0,49,0.00,,OVC055,0.00,VWS V14.01,2013-10-11 20:00:00,
2013-10-11 16:04:00,74.7,53.2,29.98,NE,34,3.0,11.0,47,0.00,,OVC055,0.00,VWS V14.01,2013-10-11 20:04:00,
2013-10-11 16:09:00,74.8,53.2,29.98,NE,43,6.0,11.0,47,0.00,,OVC055,0.00,VWS V14.01,2013-10-11 20:09:00,
2013-10-11 16:14:00,74.8,53.8,29.98,NE,48,4.0,11.0,48,0.00,,OVC055,0.00,VWS V14.01,2013-10-11 20:14:00,
2013-10-11 16:19:00,74.8,54.4,29.98,North,5,5.0,11.0,49,0.00,,OVC055,0.00,VWS V14.01,2013-10-11 20:19:00,
2013-10-11 16:24:00,74.8,53.2,29.98,NNW,333,2.0,11.0,47,0.00,,OVC055,0.00,VWS V14.01,2013-10-11 20:24:00,
2013-10-11 16:28:00,74.8,54.9,29.98,North,5,4.0,5.0,50,0.00,,OVC055,0.00,VWS V14.01,2013-10-11 20:28:00,
2013-10-11 16:30:00,74.8,54.4,29.98,NNE,21,4.0,11.0,49,0.00,,OVC055,0.00,VWS V14.01,2013-10-11 20:30:00,
2013-10-11 16:33:00,74.8,54.9,29.98,NNE,32,5.0,10.0,50,0.00,,OVC055,0.00,VWS V14.01,2013-10-11 20:33:00,
2013-10-11 16:38:00,74.5,54.1,29.98,NNE,22,5.0,10.0,49,0.00,,OVC055,0.00,VWS V14.01,2013-10-11 20:38:00,
2013-10-11 16:43:00,74.2,54.4,29.98,NNE,29,4.0,10.0,50,0.00,,OVC055,0.00,VWS V14.01,2013-10-11 20:43:00,
2013-10-11 16:48:00,73.9,53.6,29.98,North,355,5.0,10.0,49,0.00,,OVC055,0.00,VWS V14.01,2013-10-11 20:48:00,
2013-10-11 16:53:00,73.5,54.8,29.98,NNE,22,3.0,10.0,52,0.00,,OVC055,0.00,VWS V14.01,2013-10-11 20:53:00,
2013-10-11 16:58:00,73.4,54.2,29.98,ENE,63,3.0,4.0,51,0.00,,OVC055,0.00,VWS V14.01,2013-10-11 20:58:00,
2013-10-11 17:00:00,73.4,54.2,29.98,ENE,57,2.0,10.0,51,0.00,,OVC055,0.00,VWS V14.01,2013-10-11 21:00:00,
2013-10-11 17:03:00,73.3,54.1,29.98,NE,41,5.0,9.0,51,0.00,,OVC055,0.00,VWS V14.01,2013-10-11 21:03:00,
2013-10-11 17:08:00,73.1,53.9,29.98,North,5,4.0,9.0,51,0.00,,OVC055,0.00,VWS V14.01,2013-10-11 21:08:00,
2013-10-11 17:13:00,73.0,54.4,29.98,NNE,12,4.0,9.0,52,0.00,,OVC055,0.00,VWS V14.01,2013-10-11 21:13:00,
2013-10-11 17:18:00,72.7,55.1,29.98,NNE,20,4.0,9.0,54,0.00,,OVC055,0.00,VWS V14.01,2013-10-11 21:18:00,
2013-10-11 17:23:00,72.5,54.4,29.98,NNE,24,8.0,9.0,53,0.00,,OVC055,0.00,VWS V14.01,2013-10-11 21:23:00,
2013-10-11 17:28:00,72.4,53.8,29.99,NNE,22,1.0,2.0,52,0.00,,OVC055,0.00,VWS V14.01,2013-10-11 21:28:00,
2013-10-11 17:30:00,72.4,53.8,29.98,NNE,22,2.0,9.0,52,0.00,,OVC055,0.00,VWS V14.01,2013-10-11 21:30:00,
2013-10-11 17:33:00,72.2,54.7,29.99,North,9,4.0,6.0,54,0.00,,OVC055,0.00,VWS V14.01,2013-10-11 21:33:00,
2013-10-11 17:38:00,72.0,54.5,29.99,NE,53,1.0,6.0,54,0.00,,OVC055,0.00,VWS V14.01,2013-10-11 21:38:00,
2013-10-11 17:43:00,71.8,54.8,29.99,NNE,25,2.0,6.0,55,0.00,,OVC055,0.00,VWS V14.01,2013-10-11 21:43:00,
2013-10-11 17:48:00,71.6,55.1,29.99,NNE,22,0.0,6.0,56,0.00,,OVC055,0.00,VWS V14.01,2013-10-11 21:48:00,
2013-10-11 17:53:00,71.2,55.2,29.99,North,11,2.0,6.0,57,0.00,,OVC055,0.00,VWS V14.01,2013-10-11 21:53:00,
2013-10-11 17:58:00,70.9,55.4,29.99,North,5,3.0,3.0,58,0.00,,OVC055,0.00,VWS V14.01,2013-10-11 21:58:00,
2013-10-11 18:00:00,70.9,55.4,29.99,NNW,341,3.0,6.0,58,0.00,,OVC055,0.00,VWS V14.01,2013-10-11 22:00:00,
2013-10-11 18:03:00,70.6,55.6,29.99,North,355,2.0,4.0,59,0.00,,OVC055,0.00,VWS V14.01,2013-10-11 22:03:00,
2013-10-11 18:08:00,70.3,57.1,29.99,North,355,0.0,4.0,63,0.00,,OVC055,0.00,VWS V14.01,2013-10-11 22:08:00,
2013-10-11 18:13:00,70.0,55.5,29.99,NNE,13,2.0,7.0,60,0.00,,OVC055,0.00,VWS V14.01,2013-10-11 22:13:00,
2013-10-11 18:18:00,69.9,55.8,30.00,North,360,1.0,7.0,61,0.00,,OVC055,0.00,VWS V14.01,2013-10-11 22:18:00,
2013-10-11 18:23:00,69.7,55.2,30.00,North,355,3.0,7.0,60,0.00,,OVC055,0.00,VWS V14.01,2013-10-11 22:23:00,
2013-10-11 18:28:00,69.3,56.6,30.00,North,9,4.0,4.0,64,0.00,,OVC055,0.00,VWS V14.01,2013-10-11 22:28:00,
2013-10-11 18:30:00,69.4,56.7,30.00,NNW,337,2.0,7.0,64,0.00,,OVC055,0.00,VWS V14.01,2013-10-11 22:30:00,
2013-10-11 18:33:00,68.7,56.0,29.99,NNW,347,0.0,4.0,64,0.00,,OVC055,0.00,VWS V14.01,2013-10-11 22:33:00,
2013-10-11 18:38:00,68.0,56.2,29.99,NNW,345,0.0,4.0,66,0.00,,OVC055,0.00,VWS V14.01,2013-10-11 22:38:00,
2013-10-11 18:43:00,67.2,56.7,30.00,NNW,345,0.0,4.0,69,0.00,,OVC055,0.00,VWS V14.01,2013-10-11 22:43:00,
2013-10-11 18:48:00,66.4,56.3,30.00,NNW,348,1.0,4.0,70,0.00,,OVC055,0.00,VWS V14.01,2013-10-11 22:48:00,
2013-10-11 18:53:00,65.8,56.5,30.00,NNW,348,1.0,4.0,72,0.00,,OVC055,0.00,VWS V14.01,2013-10-11 22:53:00,
2013-10-11 18:58:00,65.3,56.4,30.00,NNW,348,0.0,0.0,73,0.00,,OVC055,0.00,VWS V14.01,2013-10-11 22:58:00,
2013-10-11 19:00:00,65.3,56.4,30.00,NNW,348,0.0,4.0,73,0.00,,OVC055,0.00,VWS V14.01,2013-10-11 23:00:00,
2013-10-11 19:03:00,64.7,56.2,30.00,NNW,348,0.0,1.0,74,0.00,,OVC055,0.00,VWS V14.01,2013-10-11 23:03:00,
2013-10-11 19:08:00,64.3,56.6,30.00,NNW,348,0.0,1.0,76,0.00,,OVC055,0.00,VWS V14.01,2013-10-11 23:08:00,
2013-10-11 19:13:00,63.6,56.3,30.00,NNW,348,0.0,1.0,77,0.00,,OVC055,0.00,VWS V14.01,2013-10-11 23:13:00,
2013-10-11 19:18:00,63.0,56.4,30.01,NNW,348,0.0,1.0,79,0.00,,OVC055,0.00,VWS V14.01,2013-10-11 23:18:00,
2013-10-11 19:23:00,62.6,56.3,30.01,NNW,348,0.0,1.0,80,0.00,,OVC055,0.00,VWS V14.01,2013-10-11 23:23:00,
2013-10-11 19:28:00,62.3,56.4,30.01,NNW,348,0.0,0.0,81,0.00,,OVC055,0.00,VWS V14.01,2013-10-11 23:28:00,
2013-10-11 19:30:00,62.3,56.4,30.01,NNW,348,0.0,1.0,81,0.00,,OVC055,0.00,VWS V14.01,2013-10-11 23:30:00,
2013-10-11 19:33:00,62.0,56.5,30.01,NNW,348,0.0,0.0,82,0.00,,OVC055,0.00,VWS V14.01,2013-10-11 23:33:00,
2013-10-11 19:38:00,61.4,56.2,30.01,NNW,348,0.0,0.0,83,0.00,,OVC055,0.00,VWS V14.01,2013-10-11 23:38:00,
2013-10-11 19:43:00,60.9,56.0,30.01,NNW,348,0.0,1.0,84,0.00,,OVC055,0.00,VWS V14.01,2013-10-11 23:43:00,
2013-10-11 19:48:00,60.6,56.1,30.02,NNW,348,0.0,1.0,85,0.00,,OVC055,0.00,VWS V14.01,2013-10-11 23:48:00,
2013-10-11 19:53:00,60.2,56.0,30.02,NNW,348,0.0,1.0,86,0.00,,OVC055,0.00,VWS V14.01,2013-10-11 23:53:00,
2013-10-11 19:58:00,59.6,55.7,30.02,NNW,348,0.0,1.0,87,0.00,,OVC055,0.00,VWS V14.01,2013-10-11 23:58:00,
2013-10-11 20:00:00,59.6,55.7,30.02,NNW,348,1.0,1.0,87,0.00,,OVC055,0.00,VWS V14.01,2013-10-12 00:00:00,
2013-10-11 20:03:00,59.1,55.5,30.02,NNW,348,1.0,1.0,88,0.00,,OVC055,0.00,VWS V14.01,2013-10-12 00:03:00,
2013-10-11 20:08:00,58.9,55.7,30.02,NNW,348,0.0,2.0,89,0.00,,OVC055,0.00,VWS V14.01,2013-10-12 00:08:00,
2013-10-11 20:13:00,58.6,55.4,30.02,NNW,348,0.0,2.0,89,0.00,,OVC055,0.00,VWS V14.01,2013-10-12 00:13:00,
2013-10-11 20:18:00,58.3,55.4,30.02,NNW,348,0.0,2.0,90,0.00,,OVC055,0.00,VWS V14.01,2013-10-12 00:18:00,
2013-10-11 20:23:00,58.0,55.4,30.02,NNW,348,0.0,2.0,91,0.00,,OVC055,0.00,VWS V14.01,2013-10-12 00:23:00,
2013-10-11 20:28:00,57.8,55.2,30.02,NNW,348,0.0,0.0,91,0.00,,OVC055,0.00,VWS V14.01,2013-10-12 00:28:00,
2013-10-11 20:30:00,57.8,55.2,30.02,NNW,348,0.0,2.0,91,0.00,,OVC055,0.00,VWS V14.01,2013-10-12 00:30:00,
2013-10-11 20:33:00,57.5,55.2,30.02,NNW,348,0.0,1.0,92,0.00,,OVC055,0.00,VWS V14.01,2013-10-12 00:33:00,
2013-10-11 20:38:00,57.3,55.0,30.03,NNW,348,0.0,2.0,92,0.00,,OVC055,0.00,VWS V14.01,2013-10-12 00:38:00,
2013-10-11 20:43:00,57.2,54.9,30.03,NNW,348,0.0,2.0,92,0.00,,OVC055,0.00,VWS V14.01,2013-10-12 00:43:00,
2013-10-11 20:48:00,56.9,54.6,30.02,NNW,348,0.0,2.0,92,0.00,,OVC055,0.00,VWS V14.01,2013-10-12 00:48:00,
2013-10-11 20:53:00,56.6,54.6,30.03,NNW,348,0.0,2.0,93,0.00,,OVC055,0.00,VWS V14.01,2013-10-12 00:53:00,
2013-10-11 20:58:00,56.3,54.6,30.03,NNW,348,0.0,2.0,94,0.00,,OVC055,0.00,VWS V14.01,2013-10-12 00:58:00,
2013-10-11 21:00:00,56.3,54.6,30.03,NNW,348,0.0,2.0,94,0.00,,OVC055,0.00,VWS V14.01,2013-10-12 01:00:00,
2013-10-11 21:03:00,56.0,54.3,30.03,NNW,348,0.0,0.0,94,0.00,,OVC055,0.00,VWS V14.01,2013-10-12 01:03:00,
2013-10-11 21:08:00,55.9,54.5,30.03,NNW,348,0.0,1.0,95,0.00,,OVC055,0.00,VWS V14.01,2013-10-12 01:08:00,
2013-10-11 21:13:00,55.8,54.7,30.03,NNW,348,0.0,1.0,96,0.00,,OVC055,0.00,VWS V14.01,2013-10-12 01:13:00,
2013-10-11 21:18:00,55.7,54.3,30.03,NNW,348,0.0,1.0,95,0.00,,OVC055,0.00,VWS V14.01,2013-10-12 01:18:00,
2013-10-11 21:23:00,55.5,54.4,30.03,NNW,348,0.0,1.0,96,0.00,,OVC055,0.00,VWS V14.01,2013-10-12 01:23:00,
2013-10-11 21:28:00,55.3,53.9,30.03,NNW,348,0.0,1.0,95,0.00,,OVC055,0.00,VWS V14.01,2013-10-12 01:28:00,
2013-10-11 21:30:00,55.3,53.9,30.03,NNW,348,0.0,1.0,95,0.00,,OVC055,0.00,VWS V14.01,2013-10-12 01:30:00,
2013-10-11 21:33:00,54.9,53.5,30.03,NNW,347,0.0,3.0,95,0.00,,OVC055,0.00,VWS V14.01,2013-10-12 01:33:00,
2013-10-11 21:38:00,54.8,53.7,30.03,NNW,347,0.0,3.0,96,0.00,,OVC055,0.00,VWS V14.01,2013-10-12 01:38:00,
2013-10-11 21:43:00,54.7,53.9,30.03,NNW,347,0.0,3.0,97,0.00,,OVC055,0.00,VWS V14.01,2013-10-12 01:43:00,
2013-10-11 21:48:00,54.7,53.9,30.04,NNW,347,0.0,3.0,97,0.00,,OVC055,0.00,VWS V14.01,2013-10-12 01:48:00,
2013-10-11 21:53:00,54.7,53.9,30.04,NNW,347,0.0,3.0,97,0.00,,OVC055,0.00,VWS V14.01,2013-10-12 01:53:00,
2013-10-11 21:58:00,54.7,53.9,30.04,NNW,347,0.0,3.0,97,0.00,,OVC055,0.00,VWS V14.01,2013-10-12 01:58:00,
2013-10-11 22:00:00,54.7,53.9,30.04,NNW,347,0.0,3.0,97,0.00,,OVC055,0.00,VWS V14.01,2013-10-12 02:00:00,
2013-10-11 22:03:00,54.6,53.8,30.04,NNW,347,0.0,0.0,97,0.00,,OVC055,0.00,VWS V14.01,2013-10-12 02:03:00,
2013-10-11 22:08:00,54.5,53.7,30.04,NNW,347,0.0,0.0,97,0.00,,OVC055,0.00,VWS V14.01,2013-10-12 02:08:00,
2013-10-11 22:13:00,54.4,53.6,30.04,NNW,347,0.0,0.0,97,0.00,,OVC055,0.00,VWS V14.01,2013-10-12 02:13:00,
2013-10-11 22:18:00,54.1,53.3,30.04,NNW,347,0.0,1.0,97,0.00,,OVC055,0.00,VWS V14.01,2013-10-12 02:18:00,
2013-10-11 22:23:00,53.9,53.1,30.04,NNW,347,0.0,1.0,97,0.00,,OVC055,0.00,VWS V14.01,2013-10-12 02:23:00,
2013-10-11 22:28:00,53.8,53.0,30.05,NNW,347,0.0,1.0,97,0.00,,OVC055,0.00,VWS V14.01,2013-10-12 02:28:00,
2013-10-11 22:30:00,53.8,53.0,30.05,NNW,347,0.0,1.0,97,0.00,,OVC055,0.00,VWS V14.01,2013-10-12 02:30:00,
2013-10-11 22:33:00,53.7,53.2,30.04,NNW,347,0.0,1.0,98,0.00,,OVC055,0.00,VWS V14.01,2013-10-12 02:33:00,
2013-10-11 22:38:00,53.6,53.0,30.04,NNW,347,0.0,1.0,98,0.00,,OVC055,0.00,VWS V14.01,2013-10-12 02:38:00,
2013-10-11 22:43:00,53.5,53.0,30.04,NNW,347,0.0,1.0,98,0.00,,OVC055,0.00,VWS V14.01,2013-10-12 02:43:00,
2013-10-11 22:48:00,53.5,53.0,30.04,NNW,347,0.0,1.0,98,0.00,,OVC055,0.00,VWS V14.01,2013-10-12 02:48:00,
2013-10-11 22:53:00,53.4,52.8,30.04,NNW,347,0.0,1.0,98,0.00,,OVC055,0.00,VWS V14.01,2013-10-12 02:53:00,
2013-10-11 22:58:00,53.3,52.8,30.04,NNW,347,0.0,1.0,98,0.00,,OVC055,0.00,VWS V14.01,2013-10-12 02:58:00,
2013-10-11 23:00:00,53.3,52.8,30.04,NNW,347,0.0,1.0,98,0.00,,OVC055,0.00,VWS V14.01,2013-10-12 03:00:00,
2013-10-11 23:03:00,53.1,52.5,30.04,NNW,347,0.0,0.0,98,0.00,,OVC055,0.00,VWS V14.01,2013-10-12 03:03:00,
2013-10-11 23:08:00,52.9,52.3,30.04,NNW,347,0.0,0.0,98,0.00,,OVC055,0.00,VWS V14.01,2013-10-12 03:08:00,
2013-10-11 23:13:00,52.8,52.2,30.04,NNW,347,0.0,0.0,98,0.00,,OVC055,0.00,VWS V14.01,2013-10-12 03:13:00,
2013-10-11 23:18:00,52.7,52.2,30.04,NNW,347,0.0,0.0,98,0.00,,OVC055,0.00,VWS V14.01,2013-10-12 03:18:00,
2013-10-11 23:23:00,52.6,52.0,30.04,NNW,347,0.0,0.0,98,0.00,,OVC055,0.00,VWS V14.01,2013-10-12 03:23:00,
2013-10-11 23:27:00,52.6,52.3,30.04,NNW,347,0.0,0.0,99,0.00,,OVC055,0.00,VWS V14.01,2013-10-12 03:27:00,
2013-10-11 23:30:00,52.5,52.2,30.04,NNW,347,0.0,0.0,99,0.00,,OVC055,0.00,VWS V14.01,2013-10-12 03:30:00,
2013-10-11 23:32:00,52.5,52.0,30.04,NNW,347,0.0,0.0,98,0.00,,OVC055,0.00,VWS V14.01,2013-10-12 03:32:00,
2013-10-11 23:37:00,52.4,51.8,30.04,NNW,347,0.0,0.0,98,0.00,,OVC055,0.00,VWS V14.01,2013-10-12 03:37:00,
2013-10-11 23:42:00,52.3,52.0,30.04,NNW,347,1.0,1.0,99,0.00,,OVC055,0.00,VWS V14.01,2013-10-12 03:42:00,
2013-10-11 23:47:00,52.3,52.0,30.04,NNW,347,0.0,1.0,99,0.00,,OVC055,0.00,VWS V14.01,2013-10-12 03:47:00,
2013-10-11 23:52:00,52.3,52.0,30.04,NNW,347,0.0,1.0,99,0.00,,OVC055,0.00,VWS V14.01,2013-10-12 03:52:00,
2013-10-11 23:57:00,52.1,51.8,30.04,NNW,347,0.0,1.0,99,0.00,,OVC055,0.00,VWS V14.01,2013-10-12 03:57:00,